Terminal Aerodrome Forecast
Issued by NWS

Home | Current Version | Previous Version | Text Only | Print | Product List | Glossary On
Versions: 1 2 3 4 5 6 7 8 9 10 11 12 13 14 15 16 17 18 19 20 21 22 23 24 25 26
000
FTUS43 KBIS 281122
TAFJMS
TAF
KJMS 281122Z 2812/2912 01004KT 1/4SM FG VV002
     FM281400 06005KT 2SM BR SCT002 BKN100
     FM281600 09004KT P6SM BKN100=

USA.gov is the U.S. government's official web portal to all federal, state and local government web resources and services.